Time;durP1;ratioP1;P1;durP2;ratioP2;P2;SDS_P1;SDS_P2;PMS_P1;PMS_P2;Temp;Humidity;BMP_temperature;BMP_pressure;BME280_temperature;BME280_humidity;BME280_pressure;Samples;Min_cycle;Max_cycle;Signal;HPM_P1;HPM_P2
2022/03/04 00:02:03;;;;;;;12.45;9.25;;;;;;;;;;5028926;28;20190;-82
2022/03/04 00:04:30;;;;;;;15.27;10.77;;;;;;;;;;5010257;28;20182;-82
2022/03/04 00:06:56;;;;;;;14.38;9.98;;;;;;;;;;5047304;28;20206;-82
2022/03/04 00:09:22;;;;;;;15.43;10.00;;;;;;;;;;5018336;28;20615;-82
2022/03/04 00:11:48;;;;;;;15.00;10.10;;;;;;;;;;5030054;28;20191;-83
2022/03/04 00:14:15;;;;;;;14.90;10.00;;;;;;;;;;5049047;28;20224;-82
2022/03/04 00:16:41;;;;;;;14.15;8.85;;;;;;;;;;5028243;28;20183;-82
2022/03/04 00:19:07;;;;;;;14.85;9.70;;;;;;;;;;5022910;28;20193;-82
2022/03/04 00:21:33;;;;;;;13.25;8.48;;;;;;;;;;5035463;28;20623;-82
2022/03/04 00:24:00;;;;;;;13.77;9.25;;;;;;;;;;5028123;28;20195;-83
2022/03/04 00:26:26;;;;;;;13.15;9.77;;;;;;;;;;5019385;28;20186;-83
2022/03/04 00:28:52;;;;;;;16.27;10.45;;;;;;;;;;5020394;28;20208;-82
2022/03/04 00:31:18;;;;;;;14.15;10.63;;;;;;;;;;5039222;28;20221;-82
2022/03/04 00:33:43;;;;;;;17.07;11.50;;;;;;;;;;5019093;28;20341;-83
2022/03/04 00:36:09;;;;;;;17.93;10.73;;;;;;;;;;5038305;28;20522;-82
2022/03/04 00:38:35;;;;;;;15.75;10.57;;;;;;;;;;5011317;28;20446;-83
2022/03/04 00:41:01;;;;;;;13.55;9.05;;;;;;;;;;5057620;28;20229;-82
2022/03/04 00:43:27;;;;;;;14.85;10.20;;;;;;;;;;5011664;28;20182;-82
2022/03/04 00:45:53;;;;;;;12.40;9.27;;;;;;;;;;5036937;28;20229;-82
2022/03/04 00:48:19;;;;;;;14.27;10.33;;;;;;;;;;5028720;28;20191;-83
2022/03/04 00:50:45;;;;;;;13.95;9.65;;;;;;;;;;5055758;28;20445;-83
2022/03/04 00:53:11;;;;;;;12.73;10.05;;;;;;;;;;5021866;28;20198;-82
2022/03/04 00:55:38;;;;;;;12.43;10.23;;;;;;;;;;5048273;28;20182;-82
2022/03/04 00:58:06;;;;;;;13.90;11.07;;;;;;;;;;5041613;28;20488;-82
2022/03/04 01:00:32;;;;;;;14.70;10.68;;;;;;;;;;5055363;28;20190;-82
2022/03/04 01:02:58;;;;;;;15.53;10.60;;;;;;;;;;5053296;28;20221;-82
2022/03/04 01:05:24;;;;;;;12.98;11.05;;;;;;;;;;5047230;28;20441;-82
2022/03/04 01:07:50;;;;;;;15.90;10.60;;;;;;;;;;5030028;28;20202;-82
2022/03/04 01:10:16;;;;;;;17.00;9.88;;;;;;;;;;5043510;28;20217;-82
2022/03/04 01:12:42;;;;;;;13.48;9.50;;;;;;;;;;5027951;28;20227;-82
2022/03/04 01:15:09;;;;;;;13.27;10.82;;;;;;;;;;5014607;28;20550;-82
2022/03/04 01:17:35;;;;;;;13.73;10.48;;;;;;;;;;5052759;28;20190;-82
2022/03/04 01:20:02;;;;;;;14.43;11.07;;;;;;;;;;5054815;28;20238;-82
2022/03/04 01:22:28;;;;;;;18.67;11.77;;;;;;;;;;5046548;28;20178;-82
2022/03/04 01:24:54;;;;;;;15.15;11.43;;;;;;;;;;5042120;28;20217;-83
2022/03/04 01:27:20;;;;;;;16.17;11.95;;;;;;;;;;5060684;28;20171;-83
2022/03/04 01:29:47;;;;;;;16.73;11.40;;;;;;;;;;5016580;28;20191;-82
2022/03/04 01:32:12;;;;;;;17.65;11.85;;;;;;;;;;5044410;28;20230;-82
2022/03/04 01:34:39;;;;;;;12.20;10.10;;;;;;;;;;5024458;28;20191;-82
2022/03/04 01:37:07;;;;;;;13.05;10.68;;;;;;;;;;5042854;28;20444;-82
2022/03/04 01:39:33;;;;;;;17.48;11.95;;;;;;;;;;5022663;28;20620;-82
2022/03/04 01:41:59;;;;;;;19.13;10.95;;;;;;;;;;5024879;28;20196;-82
2022/03/04 01:44:25;;;;;;;19.73;10.65;;;;;;;;;;5052284;28;20198;-82
2022/03/04 01:46:51;;;;;;;13.43;10.77;;;;;;;;;;5023373;28;20174;-82
2022/03/04 01:49:20;;;;;;;14.05;10.73;;;;;;;;;;5009262;28;20455;-82
2022/03/04 01:51:46;;;;;;;14.77;11.55;;;;;;;;;;5025194;28;20183;-82
2022/03/04 01:54:12;;;;;;;19.17;12.52;;;;;;;;;;5049729;28;20554;-82
2022/03/04 01:56:38;;;;;;;16.67;12.43;;;;;;;;;;5035025;28;20206;-82
2022/03/04 01:59:04;;;;;;;20.48;13.48;;;;;;;;;;5021727;28;20179;-82
2022/03/04 02:01:32;;;;;;;16.88;12.85;;;;;;;;;;5038038;28;20205;-82
2022/03/04 02:03:58;;;;;;;21.88;14.35;;;;;;;;;;5040476;28;20736;-82
2022/03/04 02:06:24;;;;;;;20.20;11.82;;;;;;;;;;5028114;28;20553;-82
2022/03/04 02:08:50;;;;;;;20.55;13.75;;;;;;;;;;5013347;28;20183;-82
2022/03/04 02:11:16;;;;;;;17.00;13.27;;;;;;;;;;5046328;28;20218;-83
2022/03/04 02:13:45;;;;;;;20.58;13.80;;;;;;;;;;5013885;28;20596;-82
2022/03/04 02:16:14;;;;;;;18.10;12.90;;;;;;;;;;5052616;28;20186;-82
2022/03/04 02:18:40;;;;;;;19.63;14.77;;;;;;;;;;5006084;28;20260;-82
2022/03/04 02:21:08;;;;;;;21.80;13.38;;;;;;;;;;5009691;28;20206;-83
2022/03/04 02:23:34;;;;;;;16.30;13.75;;;;;;;;;;5013408;28;20195;-82
2022/03/04 02:26:01;;;;;;;20.80;14.10;;;;;;;;;;5045384;28;20183;-82
2022/03/04 02:28:27;;;;;;;18.63;14.73;;;;;;;;;;5047841;28;20458;-82
2022/03/04 02:30:53;;;;;;;19.08;14.80;;;;;;;;;;5022918;28;20179;-82
2022/03/04 02:33:19;;;;;;;16.65;14.25;;;;;;;;;;5051591;28;20190;-82
2022/03/04 02:35:45;;;;;;;19.20;14.35;;;;;;;;;;5043440;28;20191;-82
2022/03/04 02:38:11;;;;;;;25.20;15.20;;;;;;;;;;5013073;28;20186;-82
2022/03/04 02:40:37;;;;;;;19.80;14.82;;;;;;;;;;5056065;28;20222;-82
2022/03/04 02:43:04;;;;;;;24.75;16.63;;;;;;;;;;5039890;28;20205;-83
2022/03/04 02:45:30;;;;;;;20.80;15.52;;;;;;;;;;5045725;28;20230;-82
2022/03/04 02:47:56;;;;;;;21.17;14.30;;;;;;;;;;5028188;28;20186;-82
2022/03/04 02:50:22;;;;;;;19.33;14.55;;;;;;;;;;5009115;28;20179;-82
2022/03/04 02:52:48;;;;;;;22.70;16.15;;;;;;;;;;5037180;28;20244;-82
2022/03/04 02:55:14;;;;;;;25.13;14.35;;;;;;;;;;5042485;28;20194;-82
2022/03/04 02:57:41;;;;;;;21.35;16.15;;;;;;;;;;5056948;28;20182;-82
2022/03/04 03:00:08;;;;;;;22.83;16.25;;;;;;;;;;5013173;28;20199;-82
2022/03/04 03:02:34;;;;;;;18.75;14.75;;;;;;;;;;5039368;28;20190;-82
2022/03/04 03:05:00;;;;;;;17.85;13.90;;;;;;;;;;5023591;28;20179;-82
2022/03/04 03:07:26;;;;;;;18.67;13.63;;;;;;;;;;5034270;28;20225;-82
2022/03/04 03:09:52;;;;;;;18.10;14.13;;;;;;;;;;5007928;28;20175;-82
2022/03/04 03:12:18;;;;;;;20.38;15.23;;;;;;;;;;5028622;28;20187;-82
2022/03/04 03:14:44;;;;;;;21.02;15.90;;;;;;;;;;5044795;28;20214;-82
2022/03/04 03:17:10;;;;;;;20.60;16.50;;;;;;;;;;5013592;28;20183;-82
2022/03/04 03:19:36;;;;;;;23.35;15.13;;;;;;;;;;5026590;28;20560;-82
2022/03/04 03:22:02;;;;;;;21.73;16.58;;;;;;;;;;5020976;28;20190;-82
2022/03/04 03:24:28;;;;;;;20.10;14.75;;;;;;;;;;5053415;28;20663;-82
2022/03/04 03:26:54;;;;;;;22.63;16.40;;;;;;;;;;5029436;28;20187;-82
2022/03/04 03:29:20;;;;;;;21.90;16.47;;;;;;;;;;5046479;28;20240;-82
2022/03/04 03:31:46;;;;;;;19.48;16.90;;;;;;;;;;5022028;28;20437;-82
2022/03/04 03:34:14;;;;;;;22.17;17.25;;;;;;;;;;5041367;28;20186;-82
2022/03/04 03:36:40;;;;;;;23.40;17.55;;;;;;;;;;5039349;28;20179;-82
2022/03/04 03:39:08;;;;;;;21.77;17.05;;;;;;;;;;5051633;28;20170;-82
2022/03/04 03:41:34;;;;;;;21.58;16.27;;;;;;;;;;5014946;28;20285;-82
2022/03/04 03:44:00;;;;;;;28.02;17.83;;;;;;;;;;5030040;28;20210;-82
2022/03/04 03:46:26;;;;;;;24.00;17.40;;;;;;;;;;5065459;28;20186;-82
2022/03/04 03:48:52;;;;;;;22.42;16.15;;;;;;;;;;5038450;28;20234;-82
2022/03/04 03:51:18;;;;;;;23.85;16.90;;;;;;;;;;5060382;28;20179;-82
2022/03/04 03:53:44;;;;;;;20.27;16.20;;;;;;;;;;5056388;28;20198;-82
2022/03/04 03:56:10;;;;;;;22.80;15.90;;;;;;;;;;5050551;28;20280;-82
2022/03/04 03:58:36;;;;;;;22.23;16.35;;;;;;;;;;5046187;28;20183;-82
2022/03/04 04:01:02;;;;;;;22.57;16.03;;;;;;;;;;5043449;28;20217;-82
2022/03/04 04:03:28;;;;;;;20.08;15.70;;;;;;;;;;5040542;28;20480;-82
2022/03/04 04:05:55;;;;;;;24.00;15.50;;;;;;;;;;5054027;28;20186;-82
2022/03/04 04:08:21;;;;;;;22.50;17.13;;;;;;;;;;5037683;28;20217;-82
2022/03/04 04:10:47;;;;;;;17.08;14.43;;;;;;;;;;5043342;28;20233;-82
2022/03/04 04:13:13;;;;;;;20.60;15.07;;;;;;;;;;5039323;28;20195;-82
2022/03/04 04:15:39;;;;;;;22.55;15.70;;;;;;;;;;5059415;28;20181;-82
2022/03/04 04:18:05;;;;;;;25.52;16.17;;;;;;;;;;5038885;28;20187;-82
2022/03/04 04:20:31;;;;;;;22.30;15.98;;;;;;;;;;5040498;28;20641;-82
2022/03/04 04:22:57;;;;;;;17.38;14.50;;;;;;;;;;5044368;28;20179;-82
2022/03/04 04:25:23;;;;;;;25.37;17.17;;;;;;;;;;5039774;28;20248;-82
2022/03/04 04:27:49;;;;;;;29.13;17.50;;;;;;;;;;5020022;28;20425;-82
2022/03/04 04:30:15;;;;;;;23.05;15.52;;;;;;;;;;5046066;28;20183;-82
2022/03/04 04:32:41;;;;;;;22.35;17.13;;;;;;;;;;5045871;28;20195;-82
2022/03/04 04:35:07;;;;;;;22.13;15.45;;;;;;;;;;5039014;28;20191;-83
2022/03/04 04:37:33;;;;;;;24.33;16.88;;;;;;;;;;5022674;28;20190;-82
2022/03/04 04:39:59;;;;;;;22.02;15.60;;;;;;;;;;5021090;28;20217;-82
2022/03/04 04:42:25;;;;;;;24.67;17.10;;;;;;;;;;5004793;28;20209;-82
2022/03/04 04:44:52;;;;;;;24.95;16.73;;;;;;;;;;5026861;28;20823;-82
2022/03/04 04:47:18;;;;;;;20.58;15.95;;;;;;;;;;5036764;28;20229;-82
2022/03/04 04:49:44;;;;;;;20.80;15.45;;;;;;;;;;5052567;28;20179;-82
2022/03/04 04:52:10;;;;;;;23.52;16.80;;;;;;;;;;5038712;28;20186;-82
2022/03/04 04:54:37;;;;;;;21.38;16.30;;;;;;;;;;5015208;28;20182;-82
2022/03/04 04:57:03;;;;;;;21.08;16.48;;;;;;;;;;5011312;28;20187;-82
2022/03/04 04:59:29;;;;;;;27.00;17.90;;;;;;;;;;5011179;28;20187;-83
2022/03/04 05:01:55;;;;;;;26.48;18.23;;;;;;;;;;5014054;28;20202;-82
2022/03/04 05:04:21;;;;;;;23.40;17.07;;;;;;;;;;5051784;28;20191;-82
2022/03/04 05:06:47;;;;;;;28.60;18.75;;;;;;;;;;5020289;28;20434;-82
2022/03/04 05:09:13;;;;;;;20.53;15.80;;;;;;;;;;5006005;28;20175;-82
2022/03/04 05:11:40;;;;;;;23.50;18.75;;;;;;;;;;5026568;28;20590;-82
2022/03/04 05:14:06;;;;;;;21.75;16.42;;;;;;;;;;5033328;28;20214;-83
2022/03/04 05:16:32;;;;;;;21.90;15.60;;;;;;;;;;5044380;28;20201;-82
2022/03/04 05:18:58;;;;;;;17.80;15.63;;;;;;;;;;5037625;28;20191;-82
2022/03/04 05:21:24;;;;;;;23.27;17.50;;;;;;;;;;5009562;28;20484;-82
2022/03/04 05:23:59;;;;;;;25.02;17.17;;;;;;;;;;5013928;28;20821;-83
2022/03/04 05:26:27;;;;;;;28.83;18.67;;;;;;;;;;5013131;28;20247;-82
2022/03/04 05:28:54;;;;;;;21.27;17.77;;;;;;;;;;5050473;28;20654;-82
2022/03/04 05:31:20;;;;;;;26.58;17.38;;;;;;;;;;5010827;28;20201;-82
2022/03/04 05:33:46;;;;;;;22.75;17.48;;;;;;;;;;5038319;28;20186;-83
2022/03/04 05:36:12;;;;;;;23.53;17.90;;;;;;;;;;5014287;28;20190;-82
2022/03/04 05:38:38;;;;;;;26.20;18.38;;;;;;;;;;5046641;28;20446;-82
2022/03/04 05:41:04;;;;;;;25.55;17.42;;;;;;;;;;5013789;28;20250;-82
2022/03/04 05:43:30;;;;;;;25.73;17.48;;;;;;;;;;5010081;28;20187;-82
2022/03/04 05:45:56;;;;;;;21.33;17.77;;;;;;;;;;5017015;28;20198;-82
2022/03/04 05:48:22;;;;;;;26.63;18.55;;;;;;;;;;5015354;28;20183;-82
2022/03/04 05:50:48;;;;;;;27.10;20.20;;;;;;;;;;5035990;28;20270;-82
2022/03/04 05:53:14;;;;;;;28.75;21.67;;;;;;;;;;5035412;28;20191;-82
2022/03/04 05:55:40;;;;;;;30.38;18.90;;;;;;;;;;5045186;28;20294;-82
2022/03/04 05:58:06;;;;;;;23.90;18.33;;;;;;;;;;5060159;28;20233;-81
2022/03/04 06:00:32;;;;;;;25.05;18.25;;;;;;;;;;5031287;28;20256;-82
2022/03/04 06:02:58;;;;;;;26.00;18.90;;;;;;;;;;5029920;28;20225;-82
2022/03/04 06:05:24;;;;;;;27.30;19.80;;;;;;;;;;5052681;28;20187;-82
2022/03/04 06:07:50;;;;;;;25.75;17.92;;;;;;;;;;5051255;28;20201;-82
2022/03/04 06:10:17;;;;;;;25.88;19.17;;;;;;;;;;5024187;28;20186;-83
2022/03/04 06:12:43;;;;;;;29.58;19.80;;;;;;;;;;5024152;28;20170;-81
2022/03/04 06:15:09;;;;;;;25.15;18.20;;;;;;;;;;5047407;28;20199;-83
2022/03/04 06:17:36;;;;;;;24.90;18.42;;;;;;;;;;5041438;28;20574;-83
2022/03/04 06:20:02;;;;;;;30.02;18.00;;;;;;;;;;5009190;28;20215;-82
2022/03/04 06:22:28;;;;;;;24.85;17.75;;;;;;;;;;5027518;28;20178;-83
2022/03/04 06:24:54;;;;;;;28.17;19.60;;;;;;;;;;5063817;28;20212;-83
2022/03/04 06:27:20;;;;;;;26.00;18.30;;;;;;;;;;5058157;28;20536;-82
2022/03/04 06:29:46;;;;;;;25.10;18.33;;;;;;;;;;5032408;28;20449;-83
2022/03/04 06:32:14;;;;;;;26.97;19.27;;;;;;;;;;5046283;28;20446;-82
2022/03/04 06:34:40;;;;;;;29.67;18.17;;;;;;;;;;5045063;28;20445;-82
2022/03/04 06:37:06;;;;;;;28.95;19.05;;;;;;;;;;5009544;28;20197;-82
2022/03/04 06:39:32;;;;;;;25.08;18.15;;;;;;;;;;5055509;28;20206;-82
2022/03/04 06:41:58;;;;;;;27.63;20.92;;;;;;;;;;5048866;28;20727;-82
2022/03/04 06:44:25;;;;;;;28.73;19.58;;;;;;;;;;5045846;28;20308;-81
2022/03/04 06:46:52;;;;;;;29.35;18.98;;;;;;;;;;5033196;28;20238;-82
2022/03/04 06:49:18;;;;;;;28.27;19.70;;;;;;;;;;5010296;28;20194;-81
2022/03/04 06:51:44;;;;;;;25.98;18.98;;;;;;;;;;5040571;28;20599;-81
2022/03/04 06:54:10;;;;;;;24.40;18.10;;;;;;;;;;5039792;28;20216;-81
2022/03/04 06:56:36;;;;;;;34.77;20.87;;;;;;;;;;5023343;28;20191;-81
2022/03/04 06:59:02;;;;;;;26.13;18.63;;;;;;;;;;5059356;28;20538;-81
2022/03/04 07:01:28;;;;;;;28.60;19.73;;;;;;;;;;5040179;28;20855;-82
2022/03/04 07:03:54;;;;;;;31.20;20.17;;;;;;;;;;5033395;28;20437;-82
2022/03/04 07:06:20;;;;;;;31.98;19.55;;;;;;;;;;5043766;28;20431;-82
2022/03/04 07:08:46;;;;;;;28.77;19.88;;;;;;;;;;5012738;28;20175;-81
2022/03/04 07:11:12;;;;;;;32.58;21.95;;;;;;;;;;5044598;28;20226;-82
2022/03/04 07:13:38;;;;;;;25.83;19.90;;;;;;;;;;5044262;28;20178;-82
2022/03/04 07:16:04;;;;;;;26.05;19.92;;;;;;;;;;5007982;28;20440;-81
2022/03/04 07:18:31;;;;;;;28.23;21.08;;;;;;;;;;5026913;28;20664;-81
2022/03/04 07:20:57;;;;;;;35.78;21.52;;;;;;;;;;5039639;28;20210;-81
2022/03/04 07:23:23;;;;;;;26.50;20.55;;;;;;;;;;5027085;28;20190;-82
2022/03/04 07:25:49;;;;;;;29.70;20.52;;;;;;;;;;5062344;28;20175;-82
2022/03/04 07:28:16;;;;;;;32.33;22.58;;;;;;;;;;5009343;28;20186;-82
2022/03/04 07:30:42;;;;;;;30.67;21.17;;;;;;;;;;5025280;28;20170;-82
2022/03/04 07:33:08;;;;;;;24.38;19.02;;;;;;;;;;5046814;28;20237;-81
2022/03/04 07:35:34;;;;;;;30.00;22.77;;;;;;;;;;5034963;28;20274;-83
2022/03/04 07:38:00;;;;;;;32.97;21.80;;;;;;;;;;5013134;28;20190;-83
2022/03/04 07:40:26;;;;;;;32.53;20.35;;;;;;;;;;5035640;28;20222;-83
2022/03/04 07:42:52;;;;;;;34.25;23.02;;;;;;;;;;5049247;28;20178;-82
2022/03/04 07:45:18;;;;;;;31.55;22.17;;;;;;;;;;5047246;28;20209;-83
2022/03/04 07:47:44;;;;;;;32.10;22.63;;;;;;;;;;5042158;28;20279;-83
2022/03/04 07:50:15;;;;;;;32.80;22.30;;;;;;;;;;5032176;28;20211;-83
2022/03/04 07:52:42;;;;;;;31.92;22.75;;;;;;;;;;5042382;28;20191;-83
2022/03/04 07:55:09;;;;;;;30.65;21.15;;;;;;;;;;5039326;28;20182;-82
2022/03/04 07:57:36;;;;;;;33.05;22.85;;;;;;;;;;5021113;28;20182;-83
2022/03/04 08:00:04;;;;;;;35.67;24.55;;;;;;;;;;5047013;28;20492;-83
2022/03/04 08:02:30;;;;;;;33.88;25.15;;;;;;;;;;5024890;28;20171;-83
2022/03/04 08:04:56;;;;;;;35.70;25.60;;;;;;;;;;5016615;28;20179;-83
2022/03/04 08:07:22;;;;;;;34.10;23.70;;;;;;;;;;5047899;28;20209;-83
2022/03/04 08:09:48;;;;;;;37.47;24.58;;;;;;;;;;5010672;28;20421;-82
2022/03/04 08:12:14;;;;;;;34.05;24.23;;;;;;;;;;5021827;28;20185;-83
2022/03/04 08:14:40;;;;;;;33.42;25.40;;;;;;;;;;5052854;28;20186;-83
2022/03/04 08:17:06;;;;;;;35.03;23.20;;;;;;;;;;5049792;28;20655;-83
2022/03/04 08:19:33;;;;;;;43.45;26.02;;;;;;;;;;5020649;28;20202;-82
2022/03/04 08:22:00;;;;;;;37.47;26.45;;;;;;;;;;5046766;28;20210;-84
2022/03/04 08:24:26;;;;;;;34.58;25.15;;;;;;;;;;5046201;28;20185;-83
2022/03/04 08:26:52;;;;;;;39.90;24.25;;;;;;;;;;5019263;28;20182;-83
2022/03/04 08:29:18;;;;;;;35.38;26.10;;;;;;;;;;5021194;28;20602;-83
2022/03/04 08:31:44;;;;;;;38.33;25.05;;;;;;;;;;5011855;28;20197;-83
2022/03/04 08:34:10;;;;;;;41.72;26.45;;;;;;;;;;5035228;28;20182;-83
2022/03/04 08:36:36;;;;;;;41.38;26.42;;;;;;;;;;5025762;28;20225;-83
2022/03/04 08:39:05;;;;;;;37.75;26.25;;;;;;;;;;5013457;28;20585;-82
2022/03/04 08:41:32;;;;;;;37.47;27.10;;;;;;;;;;5045520;28;20250;-83
2022/03/04 08:43:58;;;;;;;38.33;26.33;;;;;;;;;;5028547;28;20186;-83
2022/03/04 08:46:24;;;;;;;40.42;25.85;;;;;;;;;;5043202;28;20210;-83
2022/03/04 08:48:50;;;;;;;42.63;26.95;;;;;;;;;;5052275;28;20265;-83
2022/03/04 08:51:17;;;;;;;45.80;27.13;;;;;;;;;;5011987;28;20182;-83
2022/03/04 08:53:42;;;;;;;43.70;28.63;;;;;;;;;;5048985;28;20241;-84
2022/03/04 08:56:08;;;;;;;37.90;25.20;;;;;;;;;;5022295;28;20185;-84
2022/03/04 08:58:35;;;;;;;43.00;28.75;;;;;;;;;;5053883;28;20480;-83
2022/03/04 09:01:01;;;;;;;39.88;27.48;;;;;;;;;;5055760;28;20297;-83
2022/03/04 09:03:28;;;;;;;41.25;26.67;;;;;;;;;;5044794;28;20265;-83
2022/03/04 09:05:53;;;;;;;36.83;26.98;;;;;;;;;;5030598;28;20298;-83
2022/03/04 09:08:19;;;;;;;34.63;26.17;;;;;;;;;;5019541;28;20919;-83
2022/03/04 09:10:45;;;;;;;40.80;26.20;;;;;;;;;;5040083;28;20440;-84
2022/03/04 09:13:11;;;;;;;39.70;28.15;;;;;;;;;;5046174;28;20221;-84
2022/03/04 09:15:37;;;;;;;50.77;27.60;;;;;;;;;;5064149;28;20190;-80
2022/03/04 09:18:03;;;;;;;38.35;27.15;;;;;;;;;;5029261;28;20565;-84
2022/03/04 09:20:29;;;;;;;37.97;27.35;;;;;;;;;;5014281;28;20214;-84
2022/03/04 09:22:57;;;;;;;39.97;27.87;;;;;;;;;;5048854;28;20575;-84
2022/03/04 09:25:23;;;;;;;37.08;26.20;;;;;;;;;;5057754;28;20433;-84
2022/03/04 09:27:50;;;;;;;37.95;27.00;;;;;;;;;;5025947;28;20174;-84
2022/03/04 09:30:16;;;;;;;42.42;27.20;;;;;;;;;;5026854;28;20181;-84
2022/03/04 09:32:42;;;;;;;38.55;28.55;;;;;;;;;;5056586;28;20202;-84
2022/03/04 09:35:08;;;;;;;40.30;28.70;;;;;;;;;;5020778;28;20191;-84
2022/03/04 09:37:35;;;;;;;41.33;28.83;;;;;;;;;;5045757;28;20465;-84
2022/03/04 09:40:01;;;;;;;50.25;29.73;;;;;;;;;;5045954;28;20283;-83
2022/03/04 09:42:27;;;;;;;41.65;30.63;;;;;;;;;;5025924;28;20309;-83
2022/03/04 09:44:53;;;;;;;37.70;27.23;;;;;;;;;;5020784;28;20198;-83
2022/03/04 09:47:21;;;;;;;40.53;28.73;;;;;;;;;;5050588;28;20187;-83
2022/03/04 09:49:49;;;;;;;41.15;27.58;;;;;;;;;;5051105;28;20460;-84
2022/03/04 09:52:15;;;;;;;43.33;28.75;;;;;;;;;;5068047;28;20194;-84
2022/03/04 09:54:41;;;;;;;44.20;28.10;;;;;;;;;;5045563;28;20174;-85
2022/03/04 09:57:07;;;;;;;39.05;28.40;;;;;;;;;;5045914;28;20521;-83
2022/03/04 09:59:33;;;;;;;42.53;30.90;;;;;;;;;;5045276;28;20183;-84
2022/03/04 10:01:59;;;;;;;38.28;27.30;;;;;;;;;;5045271;28;20227;-84
2022/03/04 10:04:27;;;;;;;43.72;28.23;;;;;;;;;;5011475;28;20189;-84
2022/03/04 10:06:53;;;;;;;42.65;27.60;;;;;;;;;;5042505;28;20212;-83
2022/03/04 10:09:35;;;;;;;39.93;27.17;;;;;;;;;;5044733;28;20175;-83
2022/03/04 10:12:02;;;;;;;43.38;30.35;;;;;;;;;;5013290;28;20931;-83
2022/03/04 10:14:28;;;;;;;39.80;27.90;;;;;;;;;;5046983;28;20191;-84
2022/03/04 10:16:57;;;;;;;41.67;28.02;;;;;;;;;;5018614;28;20187;-84
2022/03/04 10:19:23;;;;;;;44.53;28.88;;;;;;;;;;5057002;28;20297;-85
2022/03/04 10:21:55;;;;;;;41.55;29.23;;;;;;;;;;5031421;28;20198;-84
2022/03/04 10:24:38;;;;;;;43.03;29.45;;;;;;;;;;5039666;28;20269;-85
2022/03/04 10:27:08;;;;;;;43.92;27.40;;;;;;;;;;5057714;28;20182;-83
2022/03/04 10:29:36;;;;;;;43.00;28.98;;;;;;;;;;5056929;28;20197;-85
2022/03/04 10:32:13;;;;;;;43.45;27.23;;;;;;;;;;5024450;28;20198;-83
2022/03/04 10:34:45;;;;;;;40.88;28.73;;;;;;;;;;5041233;28;20186;-84
2022/03/04 10:37:12;;;;;;;48.45;29.48;;;;;;;;;;5041590;28;20221;-84
2022/03/04 10:39:56;;;;;;;51.15;30.95;;;;;;;;;;5040645;28;20610;-84
2022/03/04 10:42:37;;;;;;;37.92;28.10;;;;;;;;;;5039258;28;20187;-84
2022/03/04 10:45:11;;;;;;;42.28;30.42;;;;;;;;;;5025219;28;20545;-84
2022/03/04 10:47:41;;;;;;;39.30;29.42;;;;;;;;;;5025157;28;20190;-84
2022/03/04 10:50:07;;;;;;;44.83;31.65;;;;;;;;;;5035466;28;20183;-84
2022/03/04 10:52:33;;;;;;;41.97;28.98;;;;;;;;;;5055792;28;20198;-85
2022/03/04 10:55:00;;;;;;;41.05;28.40;;;;;;;;;;5023845;28;20195;-84
2022/03/04 10:57:26;;;;;;;43.63;28.70;;;;;;;;;;5025523;28;20173;-86
2022/03/04 10:59:56;;;;;;;41.33;29.02;;;;;;;;;;5045581;28;20255;-85
2022/03/04 11:02:39;;;;;;;43.40;27.98;;;;;;;;;;5050119;28;20219;-85
2022/03/04 11:05:05;;;;;;;39.83;28.75;;;;;;;;;;5024428;28;20209;-87
2022/03/04 11:07:31;;;;;;;43.28;28.42;;;;;;;;;;5063516;28;20187;-86
2022/03/04 11:09:57;;;;;;;38.47;27.25;;;;;;;;;;5009608;28;20775;-85
2022/03/04 11:12:23;;;;;;;44.08;26.35;;;;;;;;;;5041310;28;20175;-86
2022/03/04 11:14:50;;;;;;;46.75;28.65;;;;;;;;;;5055055;28;20190;-85
2022/03/04 11:17:16;;;;;;;38.88;27.02;;;;;;;;;;5050001;28;20271;-85
2022/03/04 11:19:42;;;;;;;36.53;28.40;;;;;;;;;;5035039;28;20218;-86
2022/03/04 11:22:11;;;;;;;40.05;28.40;;;;;;;;;;5058799;28;20269;-86
2022/03/04 11:24:39;;;;;;;47.75;28.48;;;;;;;;;;5055923;28;20178;-85
2022/03/04 11:27:06;;;;;;;38.58;26.75;;;;;;;;;;5058918;28;20202;-85
2022/03/04 11:29:33;;;;;;;44.95;28.40;;;;;;;;;;5024228;28;20193;-85
2022/03/04 11:31:59;;;;;;;41.05;28.23;;;;;;;;;;5022286;28;20706;-86
2022/03/04 11:34:35;;;;;;;35.38;28.00;;;;;;;;;;5010171;28;20196;-86
2022/03/04 11:37:04;;;;;;;40.58;27.67;;;;;;;;;;5007223;28;20238;-86
2022/03/04 11:39:30;;;;;;;42.38;29.33;;;;;;;;;;5025261;28;20657;-85
2022/03/04 11:41:56;;;;;;;38.97;27.73;;;;;;;;;;5044219;28;20213;-85
2022/03/04 11:44:26;;;;;;;39.22;28.42;;;;;;;;;;5017507;28;20257;-84
2022/03/04 11:47:05;;;;;;;42.58;28.73;;;;;;;;;;5053729;28;20178;-85
2022/03/04 11:49:47;;;;;;;42.13;29.40;;;;;;;;;;5054820;28;20220;-84
2022/03/04 11:52:19;;;;;;;42.33;28.55;;;;;;;;;;5041684;28;20183;-84
2022/03/04 11:54:52;;;;;;;42.50;29.38;;;;;;;;;;5038736;28;20183;-85
2022/03/04 11:57:21;;;;;;;37.63;28.48;;;;;;;;;;5037387;28;20275;-85
2022/03/04 11:59:53;;;;;;;37.47;27.55;;;;;;;;;;5015475;28;20839;-86
2022/03/04 12:02:27;;;;;;;38.70;26.35;;;;;;;;;;5050768;28;20255;-85
2022/03/04 12:05:12;;;;;;;36.60;28.55;;;;;;;;;;5055970;28;20187;-85
2022/03/04 12:07:39;;;;;;;40.50;29.00;;;;;;;;;;5043069;28;20693;-86
2022/03/04 12:10:08;;;;;;;43.55;27.90;;;;;;;;;;5054638;28;20217;-85
2022/03/04 12:12:34;;;;;;;43.50;28.75;;;;;;;;;;5050969;28;20173;-84
2022/03/04 12:15:16;;;;;;;38.92;27.33;;;;;;;;;;5037794;28;20199;-84
2022/03/04 12:17:51;;;;;;;39.72;27.58;;;;;;;;;;5046151;28;20254;-85
2022/03/04 12:20:26;;;;;;;38.90;27.67;;;;;;;;;;5043075;28;20222;-85
2022/03/04 12:22:57;;;;;;;38.50;26.17;;;;;;;;;;5043258;28;20260;-84
2022/03/04 12:25:23;;;;;;;36.75;27.15;;;;;;;;;;5067356;28;20186;-85
2022/03/04 12:27:54;;;;;;;39.33;26.88;;;;;;;;;;5014027;28;20176;-85
2022/03/04 12:30:22;;;;;;;45.13;25.63;;;;;;;;;;5022153;28;20176;-85
2022/03/04 12:32:54;;;;;;;33.13;25.30;;;;;;;;;;5021848;28;20193;-85
2022/03/04 12:35:22;;;;;;;32.47;25.40;;;;;;;;;;5053953;28;20225;-85
2022/03/04 12:37:48;;;;;;;32.78;23.55;;;;;;;;;;5051531;28;20189;-85
2022/03/04 12:40:14;;;;;;;39.83;27.00;;;;;;;;;;5036909;28;20222;-84
2022/03/04 12:42:50;;;;;;;40.78;26.65;;;;;;;;;;5058453;28;20265;-85
2022/03/04 12:45:16;;;;;;;34.72;25.15;;;;;;;;;;5014627;28;20188;-85
2022/03/04 12:47:42;;;;;;;37.93;27.73;;;;;;;;;;5028837;28;20187;-87
2022/03/04 12:50:08;;;;;;;40.83;26.97;;;;;;;;;;5014797;28;20450;-85
2022/03/04 12:52:34;;;;;;;40.88;26.98;;;;;;;;;;5049472;28;20433;-85
2022/03/04 12:55:04;;;;;;;32.43;25.50;;;;;;;;;;5005916;28;20183;-86
2022/03/04 12:57:31;;;;;;;37.92;25.05;;;;;;;;;;5048730;28;20422;-86
2022/03/04 12:59:58;;;;;;;32.47;25.02;;;;;;;;;;5020420;28;20186;-84
2022/03/04 13:02:25;;;;;;;34.75;24.90;;;;;;;;;;5049133;28;20187;-84
2022/03/04 13:05:00;;;;;;;33.63;25.83;;;;;;;;;;5020083;28;20176;-84
2022/03/04 13:07:27;;;;;;;38.35;24.45;;;;;;;;;;5040805;28;20190;-85
2022/03/04 13:09:57;;;;;;;39.97;25.45;;;;;;;;;;5053571;28;20203;-83
2022/03/04 13:12:24;;;;;;;33.03;23.40;;;;;;;;;;5055506;28;20405;-84
2022/03/04 13:14:50;;;;;;;33.60;22.67;;;;;;;;;;5051681;28;20220;-84
2022/03/04 13:17:16;;;;;;;37.05;23.73;;;;;;;;;;5046058;28;20178;-84
2022/03/04 13:19:43;;;;;;;40.13;26.00;;;;;;;;;;5046249;28;20190;-85
2022/03/04 13:22:15;;;;;;;45.55;24.73;;;;;;;;;;5053756;28;20278;-84
2022/03/04 13:24:42;;;;;;;36.05;23.70;;;;;;;;;;5037658;28;20179;-84
2022/03/04 13:27:08;;;;;;;41.67;25.00;;;;;;;;;;5042501;28;20262;-85
2022/03/04 13:29:36;;;;;;;36.28;23.40;;;;;;;;;;5018510;28;20194;-86
2022/03/04 13:32:06;;;;;;;32.72;23.77;;;;;;;;;;5050786;28;20187;-85
2022/03/04 13:34:32;;;;;;;36.20;24.00;;;;;;;;;;5040784;28;20224;-86
2022/03/04 13:37:00;;;;;;;37.72;23.38;;;;;;;;;;5036943;28;26331;-85
2022/03/04 13:39:30;;;;;;;39.33;24.60;;;;;;;;;;5039942;28;20175;-84
2022/03/04 13:42:13;;;;;;;33.90;24.38;;;;;;;;;;5042552;28;20282;-85
2022/03/04 13:44:49;;;;;;;31.05;23.75;;;;;;;;;;5009854;28;20243;-85
2022/03/04 13:47:27;;;;;;;40.78;26.58;;;;;;;;;;5048726;28;20183;-84
2022/03/04 13:49:53;;;;;;;34.60;24.05;;;;;;;;;;5055441;28;20182;-83
2022/03/04 13:52:19;;;;;;;38.90;24.52;;;;;;;;;;5043422;28;20253;-86
2022/03/04 13:54:59;;;;;;;35.60;23.20;;;;;;;;;;5008687;28;20201;-84
2022/03/04 13:57:25;;;;;;;23.30;15.95;;;;;;;;;;5040882;28;20415;-84
2022/03/04 13:59:51;;;;;;;21.67;16.10;;;;;;;;;;5025019;28;20183;-88
2022/03/04 14:02:17;;;;;;;22.08;15.50;;;;;;;;;;5020256;28;20219;-87
2022/03/04 14:04:54;;;;;;;21.40;15.13;;;;;;;;;;5013791;28;20214;-85
2022/03/04 14:07:21;;;;;;;19.55;13.82;;;;;;;;;;5011105;28;20455;-85
2022/03/04 14:09:49;;;;;;;20.10;12.85;;;;;;;;;;5040804;28;20170;-84
2022/03/04 14:12:15;;;;;;;19.55;13.60;;;;;;;;;;5040780;28;20189;-84
2022/03/04 14:14:41;;;;;;;16.40;12.73;;;;;;;;;;5056232;28;20192;-84
2022/03/04 14:17:07;;;;;;;16.57;12.93;;;;;;;;;;5052829;28;20431;-84
2022/03/04 14:19:34;;;;;;;18.10;12.10;;;;;;;;;;5043467;28;20451;-83